createdAt,value
2023-01-31T00:00:49.919Z,9.23
2023-01-31T00:03:18.145Z,8.93
2023-01-31T00:05:46.358Z,9.87
2023-01-31T00:08:15.382Z,9.67
2023-01-31T00:10:43.510Z,9.10
2023-01-31T00:13:11.693Z,9.30
2023-01-31T00:15:40.020Z,10.17
2023-01-31T00:18:09.559Z,8.83
2023-01-31T00:20:38.350Z,9.87
2023-01-31T00:23:06.796Z,9.23
2023-01-31T00:25:34.970Z,9.97
2023-01-31T00:28:03.131Z,9.60
2023-01-31T00:30:31.500Z,8.80
2023-01-31T00:32:59.755Z,8.97
2023-01-31T00:35:29.360Z,8.70
2023-01-31T00:37:57.586Z,9.30
2023-01-31T00:40:29.060Z,9.37
2023-01-31T00:42:57.411Z,8.73
2023-01-31T00:45:25.600Z,8.70
2023-01-31T00:47:53.924Z,8.37
2023-01-31T00:50:22.335Z,9.10
2023-01-31T00:52:52.323Z,8.60
2023-01-31T00:55:20.837Z,8.83
2023-01-31T00:57:49.320Z,9.63
2023-01-31T01:00:18.940Z,9.30
2023-01-31T01:02:48.240Z,9.20
2023-01-31T01:05:16.619Z,9.17
2023-01-31T01:07:44.920Z,9.27
2023-01-31T01:10:15.353Z,9.27
2023-01-31T01:12:43.652Z,9.20
2023-01-31T01:15:15.715Z,9.93
2023-01-31T01:17:44.073Z,10.73
2023-01-31T01:20:13.349Z,9.53
2023-01-31T01:22:42.696Z,10.63
2023-01-31T01:25:11.668Z,9.90
2023-01-31T01:27:41.240Z,9.70
2023-01-31T01:30:11.128Z,9.93
2023-01-31T01:32:39.503Z,9.33
2023-01-31T01:35:10.047Z,9.17
2023-01-31T01:37:38.353Z,8.90
2023-01-31T01:40:09.105Z,8.87
2023-01-31T01:42:38.517Z,9.43
2023-01-31T01:45:16.429Z,9.27
2023-01-31T01:47:50.107Z,9.20
2023-01-31T01:50:22.179Z,9.23
2023-01-31T01:52:54.652Z,9.43
2023-01-31T01:55:28.575Z,8.50
2023-01-31T01:58:00.090Z,8.83
2023-01-31T02:00:32.308Z,9.07
2023-01-31T02:03:02.952Z,9.00
2023-01-31T02:05:35.938Z,9.07
2023-01-31T02:08:04.941Z,9.30
2023-01-31T02:10:36.580Z,8.40
2023-01-31T02:13:06.816Z,8.20
2023-01-31T02:15:36.867Z,9.23
2023-01-31T02:18:06.325Z,8.83
2023-01-31T02:21:05.574Z,9.40
2023-01-31T02:24:03.743Z,8.43
2023-01-31T02:27:21.459Z,8.43
2023-01-31T02:30:20.302Z,8.33
2023-01-31T02:33:03.594Z,8.10
2023-01-31T02:35:44.605Z,8.63
2023-01-31T02:38:26.579Z,8.10
2023-01-31T02:41:04.560Z,8.23
2023-01-31T02:43:58.068Z,9.13
2023-01-31T02:46:31.987Z,8.33
2023-01-31T02:49:08.480Z,8.67
2023-01-31T02:51:41.277Z,8.90
2023-01-31T02:54:14.690Z,9.23
2023-01-31T02:56:44.992Z,9.20
2023-01-31T02:59:20.148Z,9.03
2023-01-31T03:01:52.170Z,9.10
2023-01-31T03:04:21.863Z,9.40
2023-01-31T03:07:00.758Z,9.27
2023-01-31T03:09:40.860Z,10.30
2023-01-31T03:12:31.559Z,9.80
2023-01-31T03:15:19.824Z,10.37
2023-01-31T03:17:58.606Z,9.90
2023-01-31T03:20:46.095Z,10.40
2023-01-31T03:23:19.129Z,10.23
2023-01-31T03:25:50.253Z,10.50
2023-01-31T03:28:26.715Z,9.97
2023-01-31T03:31:02.768Z,10.20
2023-01-31T03:33:36.103Z,10.10
2023-01-31T03:36:19.019Z,9.87
2023-01-31T03:38:59.809Z,10.10
2023-01-31T03:41:33.502Z,10.53
2023-01-31T03:44:08.901Z,10.57
2023-01-31T03:46:41.181Z,10.50
2023-01-31T03:49:14.509Z,10.33
2023-01-31T03:51:47.898Z,10.87
2023-01-31T03:54:20.045Z,10.93
2023-01-31T03:56:56.245Z,11.83
2023-01-31T03:59:28.584Z,11.73
2023-01-31T04:02:00.676Z,11.10
2023-01-31T04:04:37.239Z,11.60
2023-01-31T04:07:07.120Z,11.77
2023-01-31T04:09:39.443Z,10.90
2023-01-31T04:12:07.961Z,11.73
2023-01-31T04:14:36.968Z,11.20
2023-01-31T04:17:05.700Z,11.73
2023-01-31T04:19:33.894Z,11.93
2023-01-31T04:22:02.326Z,11.43
2023-01-31T04:24:32.059Z,11.43
2023-01-31T04:27:00.501Z,11.80
2023-01-31T04:29:28.662Z,12.27
2023-01-31T04:31:56.847Z,12.23
2023-01-31T04:34:25.145Z,12.50
2023-01-31T04:36:53.544Z,12.03
2023-01-31T04:39:24.858Z,11.63
2023-01-31T04:41:54.926Z,12.27
2023-01-31T04:44:24.356Z,12.87
2023-01-31T04:46:54.024Z,13.00
2023-01-31T04:49:22.618Z,12.77
2023-01-31T04:51:50.997Z,12.83
2023-01-31T04:54:19.282Z,12.77
2023-01-31T04:56:47.507Z,12.80
2023-01-31T04:59:17.998Z,11.40
2023-01-31T05:01:46.073Z,11.93
2023-01-31T05:04:14.806Z,11.63
2023-01-31T05:06:43.056Z,13.20
2023-01-31T05:09:12.803Z,12.50
2023-01-31T05:11:41.377Z,12.03
2023-01-31T05:14:09.703Z,11.70
2023-01-31T05:16:39.276Z,12.53
2023-01-31T05:19:07.804Z,11.73
2023-01-31T05:21:54.914Z,11.00
2023-01-31T05:24:23.853Z,12.20
2023-01-31T05:26:56.649Z,11.93
2023-01-31T05:29:25.806Z,12.13
2023-01-31T05:31:56.640Z,12.83
2023-01-31T05:34:26.530Z,12.20
2023-01-31T05:36:55.283Z,11.80
2023-01-31T05:39:23.866Z,12.30
2023-01-31T05:41:52.801Z,12.30
2023-01-31T05:44:21.132Z,11.73
2023-01-31T05:46:49.455Z,12.57
2023-01-31T05:49:19.052Z,12.67
2023-01-31T05:51:47.445Z,12.93
2023-01-31T05:54:15.827Z,12.20
2023-01-31T05:56:43.991Z,12.53
2023-01-31T05:59:12.364Z,12.07
2023-01-31T06:01:41.370Z,13.40
2023-01-31T06:04:10.695Z,13.03
2023-01-31T06:06:40.423Z,14.17
2023-01-31T06:09:12.178Z,14.00
2023-01-31T06:11:40.620Z,13.83
2023-01-31T06:14:11.446Z,13.37
2023-01-31T06:16:39.750Z,15.10
2023-01-31T06:19:08.522Z,14.43
2023-01-31T06:21:36.741Z,15.03
2023-01-31T06:24:08.488Z,16.23
2023-01-31T06:26:36.906Z,16.13
2023-01-31T06:29:05.523Z,15.13
2023-01-31T06:31:36.009Z,16.10
2023-01-31T06:34:04.540Z,15.83
2023-01-31T06:36:34.179Z,16.40
2023-01-31T06:39:09.436Z,16.73
2023-01-31T06:41:39.034Z,18.30
2023-01-31T06:44:08.433Z,17.13
2023-01-31T06:46:36.812Z,16.20
2023-01-31T06:49:05.352Z,16.33
2023-01-31T06:51:33.522Z,16.47
2023-01-31T06:54:01.821Z,16.90
2023-01-31T06:56:30.433Z,16.40
2023-01-31T06:59:00.052Z,17.33
2023-01-31T07:01:28.598Z,16.13
2023-01-31T07:03:57.064Z,15.57
2023-01-31T07:06:25.492Z,17.00
2023-01-31T07:08:53.836Z,15.90
2023-01-31T07:11:22.040Z,16.27
2023-01-31T07:13:50.427Z,15.80
2023-01-31T07:16:20.114Z,15.33
2023-01-31T07:18:48.342Z,15.00
2023-01-31T07:21:16.718Z,16.57
2023-01-31T07:23:45.549Z,16.37
2023-01-31T07:26:13.724Z,15.57
2023-01-31T07:28:42.075Z,16.03
2023-01-31T07:31:12.893Z,16.53
2023-01-31T07:33:42.741Z,16.83
2023-01-31T07:36:14.198Z,16.90
2023-01-31T07:38:43.686Z,16.80
2023-01-31T07:41:12.731Z,17.63
2023-01-31T07:43:43.908Z,13.83
2023-01-31T07:46:12.524Z,15.37
2023-01-31T07:48:42.617Z,16.37
2023-01-31T07:51:11.207Z,16.93
2023-01-31T07:53:42.265Z,16.60
2023-01-31T07:56:13.024Z,14.73
2023-01-31T07:58:42.685Z,15.30
2023-01-31T08:01:41.476Z,15.03
2023-01-31T08:04:21.215Z,14.40
2023-01-31T08:06:53.684Z,14.23
2023-01-31T08:09:21.985Z,14.50
2023-01-31T08:11:51.863Z,13.73
2023-01-31T08:14:23.783Z,14.53
2023-01-31T08:16:52.715Z,13.70
2023-01-31T08:19:22.890Z,13.93
2023-01-31T08:21:51.349Z,12.97
2023-01-31T08:24:19.759Z,13.57
2023-01-31T08:26:48.599Z,14.00
2023-01-31T08:29:16.985Z,13.13
2023-01-31T08:31:45.461Z,13.47
2023-01-31T08:34:14.956Z,13.20
2023-01-31T08:36:45.258Z,13.00
2023-01-31T08:39:13.687Z,12.97
2023-01-31T08:41:43.770Z,13.53
2023-01-31T08:44:13.944Z,12.60
2023-01-31T08:46:45.750Z,11.70
2023-01-31T08:49:14.176Z,11.37
2023-01-31T08:51:45.545Z,11.57
2023-01-31T08:54:14.848Z,11.30
2023-01-31T08:56:43.185Z,11.30
2023-01-31T08:59:12.746Z,11.63
2023-01-31T09:01:42.408Z,11.60
2023-01-31T09:04:10.907Z,11.43
2023-01-31T09:06:39.959Z,11.50
2023-01-31T09:09:10.423Z,11.63
2023-01-31T09:11:39.624Z,11.73
2023-01-31T09:14:07.879Z,11.17
2023-01-31T09:16:36.292Z,10.97
2023-01-31T09:19:04.863Z,12.47
2023-01-31T09:21:33.618Z,11.83
2023-01-31T09:24:03.882Z,11.30
2023-01-31T09:26:34.391Z,11.23
2023-01-31T09:29:03.744Z,10.97
2023-01-31T09:31:32.479Z,11.03
2023-01-31T09:34:00.989Z,11.17
2023-01-31T09:36:30.163Z,10.60
2023-01-31T09:38:59.497Z,11.20
2023-01-31T09:41:34.963Z,11.50
2023-01-31T09:44:07.794Z,12.17
2023-01-31T09:46:39.301Z,12.07
2023-01-31T09:49:11.888Z,12.20
2023-01-31T09:51:41.117Z,12.07
2023-01-31T09:54:18.093Z,11.67
2023-01-31T09:57:01.733Z,11.67
2023-01-31T09:59:37.035Z,11.17
2023-01-31T10:02:18.131Z,11.10
2023-01-31T10:05:03.042Z,10.03
2023-01-31T10:07:36.153Z,10.13
2023-01-31T10:10:13.928Z,9.43
2023-01-31T10:12:48.552Z,9.60
2023-01-31T10:15:26.100Z,9.27
2023-01-31T10:18:00.698Z,8.67
2023-01-31T10:20:35.044Z,9.40
2023-01-31T10:23:08.835Z,8.90
2023-01-31T10:25:41.624Z,9.40
2023-01-31T10:28:16.322Z,8.40
2023-01-31T10:30:50.290Z,8.70
2023-01-31T10:33:26.076Z,8.80
2023-01-31T10:35:57.306Z,8.93
2023-01-31T10:38:31.758Z,9.17
2023-01-31T10:41:07.390Z,8.23
2023-01-31T10:43:43.137Z,8.10
2023-01-31T10:46:13.084Z,9.03
2023-01-31T10:48:45.908Z,9.20
2023-01-31T10:51:28.918Z,9.13
2023-01-31T10:54:12.926Z,8.43
2023-01-31T10:56:43.975Z,8.50
2023-01-31T10:59:26.301Z,9.27
2023-01-31T11:01:54.696Z,8.00
2023-01-31T11:04:26.940Z,8.73
2023-01-31T11:06:55.966Z,7.73
2023-01-31T11:09:27.996Z,7.73
2023-01-31T11:11:58.329Z,7.33
2023-01-31T11:14:30.233Z,8.27
2023-01-31T11:17:02.004Z,8.20
2023-01-31T11:19:36.948Z,7.27
2023-01-31T11:22:08.313Z,7.20
2023-01-31T11:24:41.272Z,7.27
2023-01-31T11:27:14.055Z,7.20
2023-01-31T11:29:49.762Z,6.30
2023-01-31T11:32:21.543Z,6.10
2023-01-31T11:34:57.787Z,6.77
2023-01-31T11:37:26.256Z,6.27
2023-01-31T11:39:59.431Z,6.23
2023-01-31T11:42:28.836Z,6.17
2023-01-31T11:45:00.833Z,6.63
2023-01-31T11:47:34.695Z,6.10
2023-01-31T11:50:03.983Z,6.53
2023-01-31T11:52:34.961Z,6.77
2023-01-31T11:55:07.276Z,6.50
2023-01-31T11:57:38.365Z,6.43
2023-01-31T12:00:23.732Z,6.43
2023-01-31T12:03:00.144Z,6.40
2023-01-31T12:05:37.060Z,6.27
2023-01-31T12:08:06.428Z,6.63
2023-01-31T12:10:47.021Z,6.33
2023-01-31T12:13:19.271Z,6.63
2023-01-31T12:15:58.547Z,6.43
2023-01-31T12:18:40.965Z,6.97
2023-01-31T12:21:16.014Z,6.13
2023-01-31T12:23:56.789Z,6.40
2023-01-31T12:26:35.825Z,6.10
2023-01-31T12:29:19.322Z,6.83
2023-01-31T12:32:04.877Z,7.00
2023-01-31T12:35:00.488Z,6.83
2023-01-31T12:37:40.011Z,5.97
2023-01-31T12:40:31.764Z,6.27
2023-01-31T12:43:03.563Z,6.47
2023-01-31T12:45:45.604Z,6.40
2023-01-31T12:48:35.773Z,6.70
2023-01-31T12:51:16.314Z,6.13
2023-01-31T12:53:56.822Z,6.33
2023-01-31T12:56:45.209Z,5.90
2023-01-31T12:59:27.802Z,5.83
2023-01-31T13:02:03.708Z,5.97
2023-01-31T13:04:43.793Z,5.60
2023-01-31T13:07:17.518Z,5.30
2023-01-31T13:09:49.524Z,6.40
2023-01-31T13:12:21.378Z,6.60
2023-01-31T13:14:53.009Z,5.90
2023-01-31T13:17:27.464Z,5.93
2023-01-31T13:20:01.444Z,5.53
2023-01-31T13:22:34.899Z,5.90
2023-01-31T13:25:17.829Z,6.13
2023-01-31T13:27:53.925Z,6.20
2023-01-31T13:30:37.263Z,6.03
2023-01-31T13:33:18.321Z,6.40
2023-01-31T13:35:54.055Z,6.30
2023-01-31T13:38:23.332Z,5.87
2023-01-31T13:40:54.985Z,5.23
2023-01-31T13:43:23.337Z,5.73
2023-01-31T13:45:57.184Z,5.20
2023-01-31T13:48:30.884Z,5.80
2023-01-31T13:51:04.636Z,5.17
2023-01-31T13:53:37.421Z,5.13
2023-01-31T13:56:10.812Z,5.10
2023-01-31T13:58:40.545Z,5.70
2023-01-31T14:01:14.119Z,5.53
2023-01-31T14:04:18.704Z,5.03
2023-01-31T14:07:13.344Z,5.07
2023-01-31T14:09:45.902Z,5.07
2023-01-31T14:12:35.401Z,5.00
2023-01-31T14:15:04.371Z,5.20
2023-01-31T14:17:59.515Z,5.20
2023-01-31T14:20:29.784Z,4.80
2023-01-31T14:23:31.888Z,5.07
2023-01-31T14:26:00.379Z,5.53
2023-01-31T14:28:28.977Z,5.00
2023-01-31T14:30:57.961Z,4.83
2023-01-31T14:33:30.420Z,5.70
2023-01-31T14:36:37.494Z,5.30
2023-01-31T14:39:44.066Z,5.20
2023-01-31T14:42:36.111Z,5.43
2023-01-31T14:45:21.204Z,5.63
2023-01-31T14:48:15.695Z,5.13
2023-01-31T14:51:09.311Z,5.23
2023-01-31T14:53:55.675Z,4.80
2023-01-31T14:56:37.733Z,5.30
2023-01-31T14:59:06.501Z,5.53
2023-01-31T15:01:38.195Z,4.87
2023-01-31T15:04:07.452Z,5.60
2023-01-31T15:06:40.820Z,5.50
2023-01-31T15:09:28.965Z,5.13
2023-01-31T15:11:59.258Z,5.10
2023-01-31T15:14:36.359Z,4.93
2023-01-31T15:17:27.325Z,4.97
2023-01-31T15:20:15.042Z,4.63
2023-01-31T15:22:45.173Z,4.87
2023-01-31T15:25:24.541Z,5.03
2023-01-31T15:27:56.578Z,5.50
2023-01-31T15:30:29.039Z,5.47
2023-01-31T15:33:03.046Z,6.07
2023-01-31T15:35:34.020Z,6.73
2023-01-31T15:38:12.945Z,6.07
2023-01-31T15:40:41.261Z,5.83
2023-01-31T15:43:24.638Z,6.90
2023-01-31T15:45:53.002Z,5.30
2023-01-31T15:48:23.138Z,7.27
2023-01-31T15:50:53.497Z,7.07
2023-01-31T15:53:24.842Z,5.80
2023-01-31T15:55:58.498Z,5.77
2023-01-31T15:58:30.263Z,5.63
2023-01-31T16:01:00.755Z,5.80
2023-01-31T16:03:31.396Z,5.70
2023-01-31T16:06:03.533Z,5.60
2023-01-31T16:08:34.885Z,5.33
2023-01-31T16:11:05.608Z,8.63
2023-01-31T16:13:38.265Z,13.77
2023-01-31T16:16:10.465Z,6.60
2023-01-31T16:18:39.549Z,13.37
2023-01-31T16:21:16.526Z,20.83
2023-01-31T16:23:45.602Z,19.73
2023-01-31T16:26:16.848Z,6.37
2023-01-31T16:28:50.498Z,5.13
2023-01-31T16:31:21.804Z,6.40
2023-01-31T16:33:53.488Z,5.80
2023-01-31T16:36:26.825Z,6.37
2023-01-31T16:38:59.626Z,5.70
2023-01-31T16:41:41.808Z,5.60
2023-01-31T16:44:16.660Z,6.13
2023-01-31T16:46:47.317Z,5.93
2023-01-31T16:49:21.651Z,5.80
2023-01-31T16:51:51.010Z,5.93
2023-01-31T16:54:24.447Z,6.23
2023-01-31T16:57:22.432Z,5.57
2023-01-31T16:59:54.068Z,5.53
2023-01-31T17:02:29.171Z,6.30
2023-01-31T17:05:02.185Z,6.17
2023-01-31T17:07:32.685Z,5.70
2023-01-31T17:10:04.084Z,6.17
2023-01-31T17:12:35.149Z,5.70
2023-01-31T17:15:14.962Z,7.33
2023-01-31T17:17:43.659Z,6.20
2023-01-31T17:20:15.988Z,6.10
2023-01-31T17:22:50.468Z,6.23
2023-01-31T17:25:24.498Z,5.90
2023-01-31T17:27:53.205Z,5.67
2023-01-31T17:30:23.310Z,5.77
2023-01-31T17:32:51.944Z,5.83
2023-01-31T17:35:25.370Z,5.47
2023-01-31T17:37:53.625Z,5.13
2023-01-31T17:40:22.025Z,6.87
2023-01-31T17:42:51.990Z,6.27
2023-01-31T17:45:22.819Z,6.30
2023-01-31T17:47:51.845Z,5.60
2023-01-31T17:50:22.560Z,5.93
2023-01-31T17:52:51.666Z,5.73
2023-01-31T17:55:22.360Z,5.27
2023-01-31T17:57:50.951Z,5.13
2023-01-31T18:00:20.888Z,5.90
2023-01-31T18:02:52.642Z,5.60
2023-01-31T18:05:30.183Z,5.57
2023-01-31T18:08:05.858Z,5.07
2023-01-31T18:10:34.068Z,5.10
2023-01-31T18:13:02.406Z,5.70
2023-01-31T18:15:30.620Z,5.07
2023-01-31T18:18:00.295Z,5.43
2023-01-31T18:20:28.724Z,5.67
2023-01-31T18:22:56.991Z,5.37
2023-01-31T18:25:25.242Z,5.17
2023-01-31T18:27:53.784Z,5.37
2023-01-31T18:30:21.976Z,5.03
2023-01-31T18:32:50.157Z,5.13
2023-01-31T18:35:21.447Z,5.70
2023-01-31T18:37:50.097Z,5.20
2023-01-31T18:40:18.662Z,5.10
2023-01-31T18:42:49.996Z,5.27
2023-01-31T18:45:18.374Z,4.90
2023-01-31T18:47:46.626Z,5.13
2023-01-31T18:50:14.827Z,5.50
2023-01-31T18:52:44.464Z,5.37
2023-01-31T18:55:12.661Z,5.07
2023-01-31T18:57:40.811Z,5.03
2023-01-31T19:00:10.464Z,5.23
2023-01-31T19:02:38.675Z,5.13
2023-01-31T19:05:08.690Z,5.73
2023-01-31T19:07:36.998Z,5.90
2023-01-31T19:10:07.489Z,5.73
2023-01-31T19:12:39.171Z,5.07
2023-01-31T19:15:09.298Z,5.63
2023-01-31T19:17:38.133Z,5.87
2023-01-31T19:20:07.235Z,5.53
2023-01-31T19:22:36.075Z,5.33
2023-01-31T19:25:09.062Z,5.90
2023-01-31T19:27:37.361Z,5.27
2023-01-31T19:30:06.967Z,8.23
2023-01-31T19:32:35.337Z,6.43
2023-01-31T19:35:03.601Z,5.30
2023-01-31T19:37:31.867Z,5.30
2023-01-31T19:40:01.904Z,5.13
2023-01-31T19:42:31.890Z,5.50
2023-01-31T19:45:00.149Z,4.90
2023-01-31T19:47:28.374Z,4.93
2023-01-31T19:49:56.602Z,5.43
2023-01-31T19:52:24.847Z,5.37
2023-01-31T19:54:53.162Z,5.07
2023-01-31T19:57:21.412Z,4.40
2023-01-31T19:59:51.308Z,5.00
2023-01-31T20:02:19.641Z,5.10
2023-01-31T20:04:49.964Z,5.00
2023-01-31T20:07:18.410Z,4.70
2023-01-31T20:09:46.711Z,4.80
2023-01-31T20:12:15.850Z,5.60
2023-01-31T20:14:44.201Z,4.80
2023-01-31T20:17:13.929Z,4.37
2023-01-31T20:19:42.285Z,5.03
2023-01-31T20:22:10.547Z,5.30
2023-01-31T20:24:38.941Z,4.70
2023-01-31T20:27:07.272Z,4.77
2023-01-31T20:29:35.545Z,4.80
2023-01-31T20:32:07.513Z,4.63
2023-01-31T20:34:37.166Z,4.70
2023-01-31T20:37:05.447Z,4.73
2023-01-31T20:39:33.672Z,4.43
2023-01-31T20:42:02.683Z,4.60
2023-01-31T20:44:30.966Z,4.70
2023-01-31T20:46:59.261Z,4.83
2023-01-31T20:49:30.414Z,4.60
2023-01-31T20:52:00.345Z,4.83
2023-01-31T20:54:30.898Z,4.03
2023-01-31T20:56:59.301Z,4.63
2023-01-31T20:59:27.535Z,4.33
2023-01-31T21:01:55.729Z,4.50
2023-01-31T21:04:24.228Z,4.80
2023-01-31T21:06:52.652Z,4.80
2023-01-31T21:09:23.280Z,4.50
2023-01-31T21:11:51.588Z,4.73
2023-01-31T21:14:19.898Z,4.93
2023-01-31T21:16:48.933Z,4.83
2023-01-31T21:19:17.443Z,5.00
2023-01-31T21:21:45.673Z,5.03
2023-01-31T21:24:14.006Z,4.97
2023-01-31T21:26:44.588Z,4.60
2023-01-31T21:29:13.223Z,4.77
2023-01-31T21:31:41.640Z,4.57
2023-01-31T21:34:10.218Z,4.90
2023-01-31T21:36:38.452Z,5.10
2023-01-31T21:39:07.040Z,4.97
2023-01-31T21:41:52.636Z,6.00
2023-01-31T21:44:22.340Z,4.47
2023-01-31T21:46:50.637Z,4.70
2023-01-31T21:49:18.918Z,5.30
2023-01-31T21:51:47.316Z,5.00
2023-01-31T21:54:15.740Z,5.30
2023-01-31T21:56:44.144Z,5.00
2023-01-31T21:59:12.544Z,4.97
2023-01-31T22:01:43.667Z,4.73
2023-01-31T22:04:11.969Z,5.00
2023-01-31T22:06:42.316Z,5.30
2023-01-31T22:09:13.568Z,6.63
2023-01-31T22:11:42.325Z,4.10
2023-01-31T22:14:12.108Z,4.97
2023-01-31T22:16:41.220Z,4.80
2023-01-31T22:19:11.658Z,4.57
2023-01-31T22:21:41.398Z,4.87
2023-01-31T22:24:11.594Z,5.13
2023-01-31T22:26:42.357Z,5.00
2023-01-31T22:29:13.024Z,5.67
2023-01-31T22:31:41.730Z,5.73
2023-01-31T22:34:14.365Z,5.63
2023-01-31T22:36:44.230Z,5.27
2023-01-31T22:39:15.972Z,5.20
2023-01-31T22:41:45.148Z,4.53
2023-01-31T22:44:13.762Z,4.77
2023-01-31T22:46:42.373Z,4.83
2023-01-31T22:49:12.099Z,5.10
2023-01-31T22:51:40.413Z,4.87
2023-01-31T22:54:09.056Z,5.17
2023-01-31T22:56:38.428Z,5.00
2023-01-31T22:59:09.472Z,4.80
2023-01-31T23:01:39.107Z,4.93
2023-01-31T23:04:09.209Z,5.20
2023-01-31T23:06:39.295Z,4.97
2023-01-31T23:09:07.751Z,4.97
2023-01-31T23:11:36.078Z,4.73
2023-01-31T23:14:04.550Z,4.70
2023-01-31T23:16:50.267Z,4.80
2023-01-31T23:19:19.018Z,5.00
2023-01-31T23:21:49.299Z,5.57
2023-01-31T23:24:19.089Z,6.10
2023-01-31T23:26:47.562Z,6.17
2023-01-31T23:29:15.869Z,6.43
2023-01-31T23:31:44.521Z,6.27
2023-01-31T23:34:12.969Z,6.43
2023-01-31T23:36:41.599Z,6.57
2023-01-31T23:39:12.070Z,6.43
2023-01-31T23:41:40.367Z,6.60
2023-01-31T23:44:08.899Z,6.60
2023-01-31T23:46:37.343Z,5.97
2023-01-31T23:49:06.214Z,6.57
2023-01-31T23:51:34.507Z,6.50
2023-01-31T23:54:02.738Z,6.70
2023-01-31T23:56:32.315Z,6.23
2023-01-31T23:59:00.840Z,6.47
